North Houston, Texas
Current Conditions -  °F | °C
As of 10:53 AM on Saturday 20 Dec 2014 (Local Time) from KDWH Reporting Station
Overcast Overcast  
Wind Chill: 53°   Ceiling: 900
Heat Index: 53°   Visibility: 10mi
Dew Point: 48°   Wind: 5mph
Humidity: 83%   Direction: 20°NNE
Pressure: 30.22"   Gusts: NA
Location:  29.93°N, 95.52°W
Report Text: KDWH 201653Z 02004KT 10SM OVC009 12/09 A3022 RMK AO2 SLP232 T01170089
Loading
Personal Weather Stations






























Interactive Weather Map New forecast layout! Learn more

10-Day Weather Forecast

Advertisements
Track Severe Weather on mobile